Data for 07/02/2008

Time Sea-Level Adjusted Pressure Absolute Pressure Temperature Relative Humidity Dew Point   
(mb) (inHg) (mb) (inHg) (C) (F) (%) (C) (F)
00:05 1021 30.15 850 25.1 16.2 61.2 69 10.6 51.2
00:10 1021 30.15 850 25.1 16.1 61 71 10.8 51.4
00:15 1021 30.15 850 25.1 16 60.7 71 10.9 51.6
00:20 1021 30.15 850 25.1 15.9 60.6 71 10.8 51.4
00:25 1021 30.15 850 25.1 15.9 60.6 72 10.9 51.6
00:30 1021 30.15 850 25.1 15.7 60.2 73 10.9 51.6
00:35 1021 30.15 850 25.1 15.5 60 72 10.6 51.1
00:40 1021 30.15 850 25.1 15.2 59.4 74 10.6 51.2
00:45 1021 30.15 850 25.1 15 59 75 10.6 51
00:50 1021 30.15 850 25.1 14.9 58.9 75 10.6 51.2
00:55 1021 30.15 850 25.1 14.9 58.9 75 10.5 50.9
01:00 1021 30.15 850 25.1 15 58.9 74 10.5 50.9
01:05 1021 30.15 850 25.1 14.9 58.9 75 10.5 51
01:10 1021 30.15 850 25.1 14.9 58.9 75 10.5 51
01:15 1021 30.15 850 25.1 14.9 58.7 75 10.5 51
01:20 1021 30.15 850 25.1 14.8 58.7 74 10.3 50.6
01:25 1021 30.15 850 25.1 14.9 58.9 74 10.3 50.6
01:30 1021 30.15 850 25.1 14.7 58.5 77 10.7 51.3
01:35 1021 30.15 850 25.1 14.4 57.8 77 10.3 50.6
01:40 1021 30.15 850 25.1 14.2 57.5 77 10.3 50.5
01:45 1021 30.15 850 25.1 14 57.1 78 10.2 50.3
01:50 1021 30.15 850 25.1 14 57.1 77 10 50
01:55 1021 30.15 850 25.1 14.3 57.8 74 9.8 49.7
02:00 1021 30.15 850 25.1 14.5 58 74 10 49.9
02:05 1021 30.15 850 25.1 14.5 58 74 10 50
02:10 1021 30.15 850 25.1 14.4 57.9 75 10.1 50.1
02:15 1021 30.15 850 25.1 14.3 57.8 75 10.1 50.1
02:20 1021 30.15 850 25.1 14.3 57.7 76 10.1 50.2
02:25 1021 30.15 850 25.1 14.2 57.6 76 10.1 50.2
02:30 1021 30.15 850 25.1 14.1 57.3 77 10.1 50.3
02:35 1021 30.15 850 25.1 13.8 56.9 78 10.1 50.2
02:40 1021 30.15 850 25.1 13.7 56.6 79 10.1 50.1
02:45 1021 30.15 850 25.1 13.6 56.5 79 10.1 50.2
02:50 1021 30.15 850 25.1 13.7 56.6 79 10.1 50.2
02:55 1021 30.15 850 25.1 13.8 56.8 79 10.2 50.3
03:00 1020 30.12 850 25.1 13.7 56.6 79 10.1 50.2
03:05 1020 30.12 850 25.1 13.7 56.6 79 10.1 50.2
03:10 1020 30.12 850 25.1 13.6 56.4 80 10.2 50.3
03:15 1020 30.12 850 25.1 13.6 56.4 80 10.2 50.4
03:20 1021 30.15 850 25.1 13.4 56.2 81 10.3 50.5
03:25 1021 30.15 850 25.1 13.3 55.9 83 10.5 50.9
03:30 1021 30.15 850 25.1 13.2 55.8 82 10.2 50.4
03:35 1021 30.15 850 25.1 13.3 56 82 10.4 50.7
03:40 1021 30.15 850 25.1 13.3 56 83 10.5 51
03:45 1021 30.15 850 25.1 13.3 55.9 83 10.5 51
03:50 1021 30.15 850 25.1 13.2 55.8 84 10.5 50.9
03:55 1021 30.15 850 25.1 13.2 55.7 84 10.5 50.9
04:00 1021 30.15 850 25.1 13.2 55.7 84 10.5 50.9
04:05 1021 30.15 850 25.1 13.1 55.6 84 10.6 51
04:10 1021 30.15 850 25.1 13 55.5 85 10.5 50.9
04:15 1021 30.15 850 25.1 12.9 55.3 85 10.5 50.8
04:20 1021 30.15 850 25.1 12.9 55.2 85 10.5 50.8
04:25 1021 30.15 850 25.1 12.8 55.1 85 10.4 50.7
04:30 1021 30.15 850 25.1 12.7 54.9 85 10.3 50.6
04:35 1021 30.15 850 25.1 12.7 54.8 85 10.2 50.4
04:40 1021 30.15 850 25.1 12.5 54.6 85 10.2 50.3
04:45 1021 30.15 850 25.1 12.3 54.2 86 10.1 50.1
04:50 1021 30.15 850 25.1 12.3 54.1 86 10.1 50.1
04:55 1021 30.15 850 25.1 12.2 54 86 9.9 49.9
05:00 1021 30.15 850 25.1 12.1 53.8 84 9.5 49.1
05:05 1021 30.15 850 25.1 11.5 52.8 83 8.8 47.8
05:10 1021 30.15 850 25.1 11.3 52.3 83 8.5 47.3
05:15 1021 30.15 850 25.1 11 51.9 84 8.5 47.4
05:20 1021 30.15 850 25.1 10.7 51.3 86 8.4 47.2
05:25 1021 30.15 851 25.13 10.7 51.3 85 8.2 46.8
05:30 1021 30.15 851 25.13 10.7 51.3 85 8.3 47
05:35 1021 30.15 851 25.13 10.7 51.2 85 8.3 46.9
05:40 1021 30.15 851 25.13 10.4 50.7 86 8.2 46.7
05:45 1021 30.15 851 25.13 10.4 50.7 86 8.1 46.6
05:50 1021 30.15 851 25.13 10.6 51 86 8.3 46.9
05:55 1021 30.15 851 25.13 10.7 51.2 85 8.3 47
06:00 1021 30.15 851 25.13 10.8 51.4 85 8.3 47
06:05 1021 30.15 851 25.13 10.8 51.4 85 8.4 47
06:10 1021 30.15 851 25.13 10.8 51.5 84 8.3 46.9
06:15 1021 30.15 851 25.13 10.8 51.5 84 8.3 46.9
06:20 1022 30.18 851 25.13 10.8 51.5 84 8.2 46.8
06:25 1022 30.18 851 25.13 10.8 51.5 83 8.2 46.7
06:30 1022 30.18 851 25.13 10.9 51.7 84 8.3 46.9
06:35 1021 30.15 851 25.13 10.8 51.5 84 8.2 46.8
06:40 1022 30.18 851 25.13 10.9 51.7 83 8.2 46.7
06:45 1022 30.18 851 25.13 11.1 52 83 8.3 46.9
06:50 1022 30.18 851 25.13 11.3 52.4 82 8.3 47
06:55 1022 30.18 851 25.13 11.7 53 81 8.5 47.2
07:00 1022 30.18 851 25.13 12 53.5 80 8.7 47.6
07:05 1022 30.18 851 25.13 12.1 53.8 80 8.8 47.9
07:10 1022 30.18 851 25.13 12.4 54.2 80 8.9 48.1
07:15 1022 30.18 851 25.13 12.8 55 78 9 48.3
07:20 1022 30.18 851 25.13 13.1 55.6 77 9.3 48.7
07:25 1022 30.18 851 25.13 13.6 56.4 76 9.5 49
07:30 1022 30.18 851 25.13 13.6 56.4 77 9.7 49.5
07:35 1022 30.18 851 25.13 13.4 56.1 77 9.5 49.2
07:40 1022 30.18 851 25.13 13.5 56.3 78 9.7 49.5
07:45 1022 30.18 851 25.13 14.2 57.6 73 9.5 49.1
07:50 1022 30.18 851 25.13 14.6 58.2 72 9.6 49.4
07:55 1022 30.18 851 25.13 14.8 58.6 71 9.5 49.2
08:00 1022 30.18 851 25.13 15.2 59.3 70 9.8 49.6
08:05 1022 30.18 851 25.13 15.9 60.6 67 9.8 49.6
08:10 1022 30.18 851 25.13 16.4 61.4 66 10.1 50.1
08:15 1022 30.18 851 25.13 16.5 61.7 66 10.2 50.3
08:20 1022 30.18 851 25.13 17.2 62.9 63 10.1 50.1
08:25 1022 30.18 851 25.13 16.6 61.9 67 10.6 51
08:30 1022 30.18 851 25.13 16.6 61.9 66 10.3 50.6
08:35 1022 30.18 851 25.13 17.4 63.3 64 10.6 51.1
08:40 1022 30.18 851 25.13 16.8 62.3 68 11 51.8
08:45 1022 30.18 851 25.13 16.7 62 68 10.8 51.4
08:50 1022 30.18 851 25.13 16.7 62.1 67 10.6 51.1
08:55 1022 30.18 851 25.13 17.4 63.3 64 10.6 51.1
09:00 1022 30.18 851 25.13 17.4 63.3 66 11 51.8
09:05 1022 30.18 851 25.13 16.6 61.9 68 10.7 51.2
09:10 1022 30.18 851 25.13 16.7 62.1 67 10.8 51.4
09:15 1022 30.18 851 25.13 17 62.7 68 11.2 52.1
09:20 1022 30.18 851 25.13 17.1 62.7 67 10.9 51.7
09:25 1022 30.18 851 25.13 17.5 63.6 63 10.6 51.1
09:30 1022 30.18 851 25.13 17.8 64 65 11.2 52.2
09:35 1022 30.18 851 25.13 17.9 64.2 61 10.5 50.8
09:40 1022 30.18 851 25.13 18.5 65.2 60 10.5 51
09:45 1022 30.18 851 25.13 18.7 65.7 61 11.1 52
09:50 1022 30.18 851 25.13 18.7 65.7 57 10.2 50.3
09:55 1022 30.18 851 25.13 19.2 66.5 58 10.9 51.5
10:00 1022 30.18 851 25.13 18.7 65.7 57 10.1 50.3
10:05 1022 30.18 851 25.13 19.2 66.5 58 10.7 51.2
10:10 1022 30.18 851 25.13 19 66.2 56 10 50
10:15 1022 30.18 851 25.13 19.4 66.9 56 10.5 50.8
10:20 1022 30.18 851 25.13 18.8 65.9 62 11.6 52.9
10:25 1022 30.18 851 25.13 18.6 65.5 62 11.3 52.4
10:30 1022 30.18 851 25.13 17.8 64 65 11.3 52.3
10:35 1022 30.18 851 25.13 18.4 65.1 61 10.9 51.6
10:40 1022 30.18 851 25.13 19.2 66.5 60 11.4 52.5
10:45 1022 30.18 851 25.13 19.3 66.8 59 11.3 52.4
10:50 1021 30.15 851 25.13 19.3 66.8 61 11.8 53.2
10:55 1021 30.15 851 25.13 18.8 65.8 61 11.3 52.3
11:00 1021 30.15 851 25.13 18.9 65.9 58 10.4 50.8
11:05 1021 30.15 851 25.13 19.3 66.7 59 11 51.9
11:10 1021 30.15 851 25.13 19.3 66.8 58 10.9 51.7
11:15 1021 30.15 851 25.13 19.7 67.4 57 10.9 51.7
11:20 1021 30.15 851 25.13 20.2 68.4 55 11 51.9
11:25 1021 30.15 851 25.13 20.3 68.5 53 10.6 51
11:30 1021 30.15 851 25.13 21 69.7 51 10.7 51.2
11:35 1021 30.15 851 25.13 22 71.6 49 11 51.9
11:40 1021 30.15 851 25.13 22.2 72 49 11.3 52.3
11:45 1021 30.15 851 25.13 21 69.8 51 10.6 51.2
11:50 1021 30.15 851 25.13 21.2 70.1 49 10.2 50.3
11:55 1022 30.18 851 25.13 21.7 71 51 11.4 52.5
12:00 1021 30.15 851 25.13 20.7 69.2 52 10.7 51.3
12:05 1021 30.15 851 25.13 20.8 69.4 53 11.1 51.9
12:10 1021 30.15 851 25.13 20.2 68.4 53 10.5 50.9
12:15 1022 30.18 851 25.13 20.5 68.9 53 10.6 51.1
12:20 1022 30.18 851 25.13 20.6 69.1 54 11.1 51.9
12:25 1021 30.15 851 25.13 20.4 68.7 52 10.3 50.5
12:30 1021 30.15 851 25.13 21 69.7 50 10.2 50.4
12:35 1022 30.18 851 25.13 22.2 72 48 10.7 51.2
12:40 1021 30.15 851 25.13 22.2 72 48 10.8 51.4
12:45 1021 30.15 851 25.13 21.8 71.2 48 10.4 50.8
12:50 1021 30.15 851 25.13 21.8 71.3 46 9.8 49.6
12:55 1021 30.15 851 25.13 21.8 71.2 45 9.6 49.3
13:00 1021 30.15 851 25.13 21.9 71.5 46 10 50
13:05 1021 30.15 851 25.13 21.6 70.8 46 9.7 49.4
13:10 1021 30.15 851 25.13 22.7 72.9 44 9.9 49.8
13:15 1021 30.15 850 25.1 23.3 74 44 10.7 51.3
13:20 1021 30.15 850 25.1 22.7 72.9 40 8.6 47.4
13:25 1021 30.15 850 25.1 22.8 73 41 9.2 48.5
13:30 1021 30.15 850 25.1 23.6 74.4 39 8.9 48
13:35 1021 30.15 850 25.1 23.4 74.2 40 9.4 48.9
13:40 1021 30.15 850 25.1 23.2 73.8 41 9.6 49.3
13:45 1021 30.15 850 25.1 24 75.1 38 9 48.2
13:50 1021 30.15 850 25.1 24.1 75.4 36 8.5 47.2
13:55 1021 30.15 850 25.1 24.2 75.5 35 7.8 46.1
14:00 1021 30.15 850 25.1 24.4 75.9 36 8.5 47.3
14:05 1021 30.15 850 25.1 24.5 76.2 35 8.2 46.7
14:10 1021 30.15 850 25.1 25.2 77.4 32 7.6 45.6
14:15 1021 30.15 850 25.1 25 77 35 8.9 48
14:20 1021 30.15 850 25.1 25 77 34 8.4 47.2
14:25 1021 30.15 850 25.1 24.7 76.4 35 8.3 46.9
14:30 1021 30.15 850 25.1 24.7 76.4 34 8.1 46.6
14:35 1021 30.15 850 25.1 25.2 77.3 34 8.5 47.3
14:40 1021 30.15 850 25.1 25.2 77.3 39 10.4 50.7
14:45 1021 30.15 850 25.1 24 75.1 41 10.2 50.4
14:50 1021 30.15 850 25.1 23 73.4 43 9.9 49.8
14:55 1021 30.15 850 25.1 23.1 73.5 38 8.4 47
15:00 1021 30.15 850 25.1 23.6 74.4 37 8.2 46.7
15:05 1021 30.15 850 25.1 24.2 75.5 36 8.5 47.2
15:10 1021 30.15 850 25.1 25.4 77.7 34 8.7 47.7
15:15 1021 30.15 850 25.1 25.8 78.4 35 9.2 48.6
15:20 1021 30.15 850 25.1 25.6 78.1 35 9.5 49
15:25 1021 30.15 850 25.1 24.3 75.7 38 9.4 48.8
15:30 1021 30.15 850 25.1 23.8 74.8 38 8.9 48
15:35 1021 30.15 850 25.1 24.2 75.6 39 9.6 49.3
15:40 1021 30.15 850 25.1 23.1 73.7 43 10 49.9
15:45 1021 30.15 850 25.1 23.4 74.2 40 9.1 48.4
15:50 1021 30.15 850 25.1 23.2 73.8 41 9.6 49.2
15:55 1021 30.15 850 25.1 23.3 73.9 40 9.2 48.6
16:00 1020 30.12 850 25.1 24.3 75.7 38 9.3 48.8
16:05 1020 30.12 850 25.1 23.8 74.9 40 9.5 49
16:10 1020 30.12 850 25.1 24 75.3 37 8.6 47.4
16:15 1020 30.12 850 25.1 25.8 78.4 35 9.3 48.8
16:20 1020 30.12 850 25.1 24.9 76.9 39 10.1 50.2
16:25 1020 30.12 850 25.1 25.2 77.3 35 8.7 47.7
16:30 1020 30.12 850 25.1 25.3 77.5 35 9 48.2
16:35 1020 30.12 850 25.1 24.9 76.9 39 10.1 50.1
16:40 1020 30.12 850 25.1 24.8 76.6 35 8.5 47.3
16:45 1020 30.12 850 25.1 25.1 77.2 37 9.6 49.3
16:50 1020 30.12 850 25.1 24.4 76 39 9.9 49.8
16:55 1020 30.12 850 25.1 23.7 74.6 43 10.6 51
17:00 1020 30.12 850 25.1 24.2 75.5 39 9.7 49.4
17:05 1020 30.12 850 25.1 24.1 75.4 42 10.5 50.8
17:10 1020 30.12 850 25.1 23.9 75.1 42 10.5 50.9
17:15 1020 30.12 850 25.1 24.1 75.5 41 10.1 50.2
17:20 1020 30.12 850 25.1 23.8 74.9 41 10.2 50.3
17:25 1020 30.12 850 25.1 23.8 74.8 43 10.6 51.1
17:30 1020 30.12 850 25.1 24.2 75.6 43 11 51.9
17:35 1020 30.12 850 25.1 23.8 74.8 44 10.9 51.5
17:40 1020 30.12 850 25.1 23.4 74.1 45 10.9 51.6
17:45 1020 30.12 850 25.1 23.2 73.8 46 11 51.8
17:50 1020 30.12 849 25.07 23.2 73.7 45 10.8 51.4
17:55 1020 30.12 849 25.07 22.3 72.2 49 11.1 52
18:00 1020 30.12 849 25.07 22 71.6 49 11 51.8
18:05 1020 30.12 849 25.07 21.9 71.3 50 11 51.8
18:10 1020 30.12 849 25.07 22.1 71.8 47 10.5 50.9
18:15 1020 30.12 849 25.07 22.5 72.5 47 10.9 51.7
18:20 1020 30.12 849 25.07 22.4 72.3 48 10.9 51.6
18:25 1020 30.12 849 25.07 22.3 72.1 49 11.1 52
18:30 1020 30.12 849 25.07 21.9 71.3 49 10.8 51.4
18:35 1020 30.12 849 25.07 21.9 71.5 49 10.9 51.6
18:40 1020 30.12 849 25.07 22.1 71.7 48 10.8 51.4
18:45 1020 30.12 849 25.07 22.1 71.7 49 11 51.7
18:50 1020 30.12 849 25.07 21.8 71.3 49 10.8 51.4
18:55 1020 30.12 849 25.07 21.7 71 50 10.9 51.6
19:00 1020 30.12 849 25.07 21.7 71.1 49 10.8 51.5
19:05 1020 30.12 849 25.07 21.8 71.2 49 10.9 51.6
19:10 1020 30.12 850 25.1 21.7 71 50 11 51.9
19:15 1020 30.12 850 25.1 21.5 70.6 51 11.1 51.9
19:20 1020 30.12 850 25.1 21.2 70.1 50 10.5 50.9
19:25 1020 30.12 850 25.1 21.1 69.9 51 10.8 51.4
19:30 1020 30.12 850 25.1 21 69.9 52 10.9 51.5
19:35 1020 30.12 850 25.1 20.7 69.3 53 10.8 51.4
19:40 1020 30.12 850 25.1 20.5 68.8 54 10.9 51.7
19:45 1020 30.12 850 25.1 20.5 68.9 54 11 51.8
19:50 1020 30.12 850 25.1 20.3 68.6 54 10.9 51.6
19:55 1020 30.12 850 25.1 20.2 68.3 55 11 51.7
20:00 1020 30.12 850 25.1 20 68.1 55 10.9 51.6
20:05 1021 30.15 850 25.1 19.9 67.8 56 11 51.8
20:10 1021 30.15 850 25.1 19.7 67.5 57 11.1 51.9
20:15 1021 30.15 850 25.1 19.6 67.3 57 11.1 51.9
20:20 1021 30.15 850 25.1 19.5 67.1 58 11.2 52.2
20:25 1021 30.15 850 25.1 19.3 66.8 59 11.2 52.1
20:30 1021 30.15 850 25.1 19.2 66.5 59 11.1 52
20:35 1021 30.15 850 25.1 19.1 66.3 60 11.2 52.2
20:40 1021 30.15 850 25.1 18.9 66 60 11 51.8
20:45 1021 30.15 850 25.1 18.8 65.8 60 11 51.8
20:50 1021 30.15 850 25.1 18.7 65.6 60 10.8 51.4
20:55 1021 30.15 850 25.1 18.6 65.4 60 10.8 51.4
21:00 1020 30.12 850 25.1 18.5 65.2 61 10.8 51.5
21:05 1020 30.12 850 25.1 18.4 65.1 61 10.9 51.6
21:10 1020 30.12 850 25.1 18.2 64.8 62 11 51.8
21:15 1020 30.12 850 25.1 18.1 64.6 63 11 51.9
21:20 1021 30.15 850 25.1 18.1 64.5 64 11.2 52.1
21:25 1021 30.15 850 25.1 17.9 64.2 64 11.1 52
21:30 1021 30.15 850 25.1 17.8 64.1 64 11 51.9
21:35 1021 30.15 850 25.1 17.8 64 65 11.1 51.9
21:40 1021 30.15 850 25.1 17.7 63.9 65 11.2 52.2
21:45 1021 30.15 850 25.1 17.6 63.8 66 11.2 52.2
21:50 1021 30.15 850 25.1 17.5 63.5 67 11.4 52.4
21:55 1021 30.15 850 25.1 17.4 63.2 67 11.3 52.4
22:00 1021 30.15 850 25.1 17.3 63.1 68 11.4 52.4
22:05 1021 30.15 850 25.1 17.2 63 68 11.3 52.4
22:10 1021 30.15 850 25.1 17.2 62.9 68 11.2 52.2
22:15 1021 30.15 850 25.1 17.1 62.9 68 11.2 52.2
22:20 1021 30.15 850 25.1 17.1 62.8 68 11.2 52.1
22:25 1021 30.15 850 25.1 17.1 62.7 68 11.2 52.2
22:30 1021 30.15 850 25.1 17 62.5 68 11.2 52.1
22:35 1021 30.15 850 25.1 17 62.5 68 11.1 52.1
22:40 1021 30.15 850 25.1 16.9 62.3 69 11.2 52.2
22:45 1021 30.15 850 25.1 16.8 62.2 69 11.2 52.1
22:50 1021 30.15 850 25.1 16.8 62.2 69 11.2 52.2
22:55 1021 30.15 850 25.1 16.7 62 70 11.3 52.3
23:00 1021 30.15 850 25.1 16.5 61.8 71 11.3 52.3
23:05 1021 30.15 850 25.1 16.4 61.6 71 11.3 52.4
23:10 1021 30.15 850 25.1 16.4 61.5 72 11.3 52.4
23:15 1021 30.15 850 25.1 16.3 61.4 72 11.4 52.5
23:20 1021 30.15 850 25.1 16.2 61.2 73 11.4 52.6
23:25 1021 30.15 850 25.1 16.2 61.2 73 11.3 52.4
23:30 1021 30.15 850 25.1 16.2 61.2 73 11.4 52.5
23:35 1021 30.15 850 25.1 16.2 61.1 73 11.3 52.4
23:40 1021 30.15 850 25.1 16.2 61.1 73 11.3 52.4
23:45 1021 30.15 850 25.1 16.2 61.1 73 11.4 52.5
23:50 1021 30.15 850 25.1 16.1 60.9 74 11.4 52.6
23:55 1021 30.15 850 25.1 16 60.8 74 11.3 52.4
24:00 1021 30.15 850 25.1 16 60.7 74 11.3 52.3